sensor_id;sensor_type;location;lat;lon;timestamp;P1;durP1;ratioP1;P2;durP2;ratioP2
67508;SDS011;54354;44.724;11.284;2023-08-12T00:00:19;5.07;;;2.17;;
67508;SDS011;54354;44.724;11.284;2023-08-12T00:02:45;4.85;;;2.25;;
67508;SDS011;54354;44.724;11.284;2023-08-12T00:05:12;4.88;;;2.05;;
67508;SDS011;54354;44.724;11.284;2023-08-12T00:07:38;6.63;;;2.40;;
67508;SDS011;54354;44.724;11.284;2023-08-12T00:10:08;3.28;;;1.92;;
67508;SDS011;54354;44.724;11.284;2023-08-12T00:12:35;4.85;;;2.28;;
67508;SDS011;54354;44.724;11.284;2023-08-12T00:15:02;5.80;;;2.45;;
67508;SDS011;54354;44.724;11.284;2023-08-12T00:17:30;2.85;;;2.30;;
67508;SDS011;54354;44.724;11.284;2023-08-12T00:19:55;6.03;;;2.40;;
67508;SDS011;54354;44.724;11.284;2023-08-12T00:22:21;3.13;;;2.42;;
67508;SDS011;54354;44.724;11.284;2023-08-12T00:24:47;3.15;;;2.30;;
67508;SDS011;54354;44.724;11.284;2023-08-12T00:27:13;2.90;;;2.42;;
67508;SDS011;54354;44.724;11.284;2023-08-12T00:29:39;2.75;;;2.55;;
67508;SDS011;54354;44.724;11.284;2023-08-12T00:32:04;4.22;;;2.63;;
67508;SDS011;54354;44.724;11.284;2023-08-12T00:34:30;3.90;;;2.55;;
67508;SDS011;54354;44.724;11.284;2023-08-12T00:36:56;4.47;;;2.50;;
67508;SDS011;54354;44.724;11.284;2023-08-12T00:39:21;2.72;;;2.40;;
67508;SDS011;54354;44.724;11.284;2023-08-12T00:41:47;6.38;;;2.50;;
67508;SDS011;54354;44.724;11.284;2023-08-12T00:44:13;2.78;;;2.25;;
67508;SDS011;54354;44.724;11.284;2023-08-12T00:46:39;3.25;;;2.50;;
67508;SDS011;54354;44.724;11.284;2023-08-12T00:49:06;3.40;;;2.35;;
67508;SDS011;54354;44.724;11.284;2023-08-12T00:51:32;5.45;;;2.78;;
67508;SDS011;54354;44.724;11.284;2023-08-12T00:53:58;2.97;;;2.35;;
67508;SDS011;54354;44.724;11.284;2023-08-12T00:56:24;2.78;;;2.40;;
67508;SDS011;54354;44.724;11.284;2023-08-12T00:58:52;3.13;;;2.22;;
67508;SDS011;54354;44.724;11.284;2023-08-12T01:01:18;3.50;;;2.45;;
67508;SDS011;54354;44.724;11.284;2023-08-12T01:03:45;6.22;;;2.70;;
67508;SDS011;54354;44.724;11.284;2023-08-12T01:06:12;3.92;;;2.90;;
67508;SDS011;54354;44.724;11.284;2023-08-12T01:08:42;3.38;;;2.67;;
67508;SDS011;54354;44.724;11.284;2023-08-12T01:11:20;8.63;;;2.85;;
67508;SDS011;54354;44.724;11.284;2023-08-12T01:14:06;3.55;;;2.50;;
67508;SDS011;54354;44.724;11.284;2023-08-12T01:46:55;4.90;;;3.25;;
67508;SDS011;54354;44.724;11.284;2023-08-12T01:49:20;5.72;;;3.10;;
67508;SDS011;54354;44.724;11.284;2023-08-12T01:51:48;4.60;;;3.28;;
67508;SDS011;54354;44.724;11.284;2023-08-12T01:54:14;5.25;;;3.00;;
67508;SDS011;54354;44.724;11.284;2023-08-12T01:56:39;4.50;;;3.25;;
67508;SDS011;54354;44.724;11.284;2023-08-12T01:59:05;4.43;;;3.35;;
67508;SDS011;54354;44.724;11.284;2023-08-12T02:01:31;3.42;;;3.13;;
67508;SDS011;54354;44.724;11.284;2023-08-12T02:03:56;5.97;;;3.58;;
67508;SDS011;54354;44.724;11.284;2023-08-12T02:06:22;4.65;;;3.50;;
67508;SDS011;54354;44.724;11.284;2023-08-12T02:08:47;4.78;;;3.22;;
67508;SDS011;54354;44.724;11.284;2023-08-12T02:11:13;3.50;;;3.20;;
67508;SDS011;54354;44.724;11.284;2023-08-12T02:13:38;3.30;;;3.00;;
67508;SDS011;54354;44.724;11.284;2023-08-12T02:16:04;4.10;;;3.25;;
67508;SDS011;54354;44.724;11.284;2023-08-12T02:18:29;5.90;;;3.75;;
67508;SDS011;54354;44.724;11.284;2023-08-12T02:20:55;6.30;;;3.63;;
67508;SDS011;54354;44.724;11.284;2023-08-12T02:23:20;4.50;;;4.10;;
67508;SDS011;54354;44.724;11.284;2023-08-12T02:25:46;4.70;;;4.00;;
67508;SDS011;54354;44.724;11.284;2023-08-12T02:28:12;8.55;;;3.70;;
67508;SDS011;54354;44.724;11.284;2023-08-12T02:30:37;6.03;;;4.40;;
67508;SDS011;54354;44.724;11.284;2023-08-12T02:33:03;7.47;;;4.22;;
67508;SDS011;54354;44.724;11.284;2023-08-12T02:35:28;5.10;;;4.00;;
67508;SDS011;54354;44.724;11.284;2023-08-12T02:37:54;7.00;;;4.07;;
67508;SDS011;54354;44.724;11.284;2023-08-12T02:40:19;6.15;;;4.13;;
67508;SDS011;54354;44.724;11.284;2023-08-12T02:42:46;7.03;;;4.40;;
67508;SDS011;54354;44.724;11.284;2023-08-12T02:45:11;5.68;;;4.80;;
67508;SDS011;54354;44.724;11.284;2023-08-12T02:47:37;7.78;;;4.63;;
67508;SDS011;54354;44.724;11.284;2023-08-12T02:50:03;6.50;;;4.22;;
67508;SDS011;54354;44.724;11.284;2023-08-12T02:52:28;7.95;;;4.70;;
67508;SDS011;54354;44.724;11.284;2023-08-12T02:54:54;7.22;;;4.53;;
67508;SDS011;54354;44.724;11.284;2023-08-12T02:57:21;10.93;;;5.57;;
67508;SDS011;54354;44.724;11.284;2023-08-12T02:59:47;6.38;;;5.10;;
67508;SDS011;54354;44.724;11.284;2023-08-12T03:02:12;5.78;;;4.63;;
67508;SDS011;54354;44.724;11.284;2023-08-12T03:04:38;7.70;;;4.32;;
67508;SDS011;54354;44.724;11.284;2023-08-12T03:07:04;8.65;;;4.78;;
67508;SDS011;54354;44.724;11.284;2023-08-12T03:09:29;6.43;;;4.50;;
67508;SDS011;54354;44.724;11.284;2023-08-12T03:11:55;5.10;;;4.38;;
67508;SDS011;54354;44.724;11.284;2023-08-12T03:14:22;4.82;;;4.25;;
67508;SDS011;54354;44.724;11.284;2023-08-12T03:16:47;8.23;;;4.80;;
67508;SDS011;54354;44.724;11.284;2023-08-12T03:19:13;6.10;;;4.60;;
67508;SDS011;54354;44.724;11.284;2023-08-12T03:21:39;5.28;;;4.88;;
67508;SDS011;54354;44.724;11.284;2023-08-12T03:24:04;5.88;;;4.72;;
67508;SDS011;54354;44.724;11.284;2023-08-12T03:26:30;4.63;;;4.22;;
67508;SDS011;54354;44.724;11.284;2023-08-12T03:28:57;7.43;;;4.93;;
67508;SDS011;54354;44.724;11.284;2023-08-12T03:31:23;5.03;;;4.53;;
67508;SDS011;54354;44.724;11.284;2023-08-12T03:33:49;5.75;;;4.80;;
67508;SDS011;54354;44.724;11.284;2023-08-12T03:36:15;4.72;;;4.32;;
67508;SDS011;54354;44.724;11.284;2023-08-12T03:38:40;12.13;;;4.72;;
67508;SDS011;54354;44.724;11.284;2023-08-12T03:41:10;5.63;;;5.15;;
67508;SDS011;54354;44.724;11.284;2023-08-12T03:43:37;5.38;;;4.88;;
67508;SDS011;54354;44.724;11.284;2023-08-12T03:46:03;6.25;;;5.70;;
67508;SDS011;54354;44.724;11.284;2023-08-12T03:48:30;5.45;;;4.95;;
67508;SDS011;54354;44.724;11.284;2023-08-12T03:50:58;9.88;;;4.90;;
67508;SDS011;54354;44.724;11.284;2023-08-12T03:53:23;9.18;;;5.40;;
67508;SDS011;54354;44.724;11.284;2023-08-12T03:55:51;8.10;;;5.43;;
67508;SDS011;54354;44.724;11.284;2023-08-12T03:58:17;6.93;;;5.72;;
67508;SDS011;54354;44.724;11.284;2023-08-12T04:00:45;8.57;;;5.78;;
67508;SDS011;54354;44.724;11.284;2023-08-12T04:03:13;7.50;;;5.30;;
67508;SDS011;54354;44.724;11.284;2023-08-12T04:05:46;10.95;;;5.88;;
67508;SDS011;54354;44.724;11.284;2023-08-12T04:08:18;7.03;;;6.13;;
67508;SDS011;54354;44.724;11.284;2023-08-12T04:10:45;6.60;;;6.00;;
67508;SDS011;54354;44.724;11.284;2023-08-12T04:13:13;7.25;;;5.82;;
67508;SDS011;54354;44.724;11.284;2023-08-12T04:15:39;6.78;;;6.18;;
67508;SDS011;54354;44.724;11.284;2023-08-12T04:18:05;7.13;;;6.35;;
67508;SDS011;54354;44.724;11.284;2023-08-12T04:20:30;7.00;;;6.30;;
67508;SDS011;54354;44.724;11.284;2023-08-12T04:22:56;7.47;;;6.15;;
67508;SDS011;54354;44.724;11.284;2023-08-12T04:25:22;8.38;;;5.95;;
67508;SDS011;54354;44.724;11.284;2023-08-12T04:27:48;6.70;;;6.00;;
67508;SDS011;54354;44.724;11.284;2023-08-12T04:30:15;8.25;;;6.28;;
67508;SDS011;54354;44.724;11.284;2023-08-12T04:32:41;9.90;;;6.75;;
67508;SDS011;54354;44.724;11.284;2023-08-12T04:35:07;8.40;;;6.50;;
67508;SDS011;54354;44.724;11.284;2023-08-12T04:37:34;8.50;;;6.13;;
67508;SDS011;54354;44.724;11.284;2023-08-12T04:40:02;11.40;;;6.10;;
67508;SDS011;54354;44.724;11.284;2023-08-12T04:42:33;7.13;;;5.80;;
67508;SDS011;54354;44.724;11.284;2023-08-12T04:44:59;7.72;;;5.90;;
67508;SDS011;54354;44.724;11.284;2023-08-12T04:47:26;6.95;;;6.15;;
67508;SDS011;54354;44.724;11.284;2023-08-12T04:49:52;6.65;;;5.95;;
67508;SDS011;54354;44.724;11.284;2023-08-12T04:52:17;6.85;;;5.90;;
67508;SDS011;54354;44.724;11.284;2023-08-12T04:54:43;8.75;;;5.47;;
67508;SDS011;54354;44.724;11.284;2023-08-12T04:57:09;9.00;;;5.97;;
67508;SDS011;54354;44.724;11.284;2023-08-12T04:59:35;7.78;;;5.72;;
67508;SDS011;54354;44.724;11.284;2023-08-12T05:02:01;6.68;;;6.07;;
67508;SDS011;54354;44.724;11.284;2023-08-12T05:04:26;7.43;;;5.97;;
67508;SDS011;54354;44.724;11.284;2023-08-12T05:06:52;7.88;;;5.75;;
67508;SDS011;54354;44.724;11.284;2023-08-12T05:09:18;6.75;;;5.70;;
67508;SDS011;54354;44.724;11.284;2023-08-12T05:11:44;9.60;;;5.65;;
67508;SDS011;54354;44.724;11.284;2023-08-12T05:14:10;6.28;;;5.70;;
67508;SDS011;54354;44.724;11.284;2023-08-12T05:16:35;6.63;;;5.38;;
67508;SDS011;54354;44.724;11.284;2023-08-12T05:19:01;9.23;;;6.22;;
67508;SDS011;54354;44.724;11.284;2023-08-12T05:21:26;7.07;;;6.38;;
67508;SDS011;54354;44.724;11.284;2023-08-12T05:23:52;9.40;;;6.38;;
67508;SDS011;54354;44.724;11.284;2023-08-12T05:26:18;6.88;;;6.28;;
67508;SDS011;54354;44.724;11.284;2023-08-12T05:28:43;8.55;;;6.93;;
67508;SDS011;54354;44.724;11.284;2023-08-12T05:31:09;10.55;;;6.07;;
67508;SDS011;54354;44.724;11.284;2023-08-12T05:33:34;7.60;;;6.90;;
67508;SDS011;54354;44.724;11.284;2023-08-12T05:36:00;7.40;;;6.70;;
67508;SDS011;54354;44.724;11.284;2023-08-12T05:38:25;6.93;;;6.22;;
67508;SDS011;54354;44.724;11.284;2023-08-12T05:40:51;9.00;;;6.68;;
67508;SDS011;54354;44.724;11.284;2023-08-12T05:43:16;7.50;;;6.80;;
67508;SDS011;54354;44.724;11.284;2023-08-12T05:45:42;6.53;;;5.90;;
67508;SDS011;54354;44.724;11.284;2023-08-12T05:48:07;7.78;;;6.22;;
67508;SDS011;54354;44.724;11.284;2023-08-12T05:50:33;8.13;;;7.03;;
67508;SDS011;54354;44.724;11.284;2023-08-12T05:52:59;6.93;;;6.32;;
67508;SDS011;54354;44.724;11.284;2023-08-12T05:55:24;6.45;;;5.85;;
67508;SDS011;54354;44.724;11.284;2023-08-12T05:57:50;7.38;;;6.68;;
67508;SDS011;54354;44.724;11.284;2023-08-12T06:00:15;6.82;;;6.20;;
67508;SDS011;54354;44.724;11.284;2023-08-12T06:02:41;6.95;;;6.25;;
67508;SDS011;54354;44.724;11.284;2023-08-12T06:05:07;7.07;;;6.47;;
67508;SDS011;54354;44.724;11.284;2023-08-12T06:07:33;6.95;;;6.25;;
67508;SDS011;54354;44.724;11.284;2023-08-12T06:09:59;6.57;;;5.97;;
67508;SDS011;54354;44.724;11.284;2023-08-12T06:12:25;8.75;;;6.22;;
67508;SDS011;54354;44.724;11.284;2023-08-12T06:14:50;6.53;;;5.80;;
67508;SDS011;54354;44.724;11.284;2023-08-12T06:17:16;7.38;;;5.95;;
67508;SDS011;54354;44.724;11.284;2023-08-12T06:19:41;5.97;;;5.45;;
67508;SDS011;54354;44.724;11.284;2023-08-12T06:22:07;6.10;;;5.60;;
67508;SDS011;54354;44.724;11.284;2023-08-12T06:24:32;8.43;;;5.60;;
67508;SDS011;54354;44.724;11.284;2023-08-12T06:26:58;5.75;;;4.93;;
67508;SDS011;54354;44.724;11.284;2023-08-12T06:29:23;5.38;;;4.88;;
67508;SDS011;54354;44.724;11.284;2023-08-12T06:31:49;5.03;;;4.50;;
67508;SDS011;54354;44.724;11.284;2023-08-12T06:34:15;6.53;;;4.60;;
67508;SDS011;54354;44.724;11.284;2023-08-12T06:36:40;5.82;;;4.63;;
67508;SDS011;54354;44.724;11.284;2023-08-12T06:39:06;6.90;;;4.72;;
67508;SDS011;54354;44.724;11.284;2023-08-12T06:41:31;7.10;;;4.65;;
67508;SDS011;54354;44.724;11.284;2023-08-12T06:43:57;6.18;;;4.18;;
67508;SDS011;54354;44.724;11.284;2023-08-12T06:46:22;8.80;;;4.30;;
67508;SDS011;54354;44.724;11.284;2023-08-12T06:48:48;7.32;;;3.40;;
67508;SDS011;54354;44.724;11.284;2023-08-12T06:51:13;7.30;;;3.20;;
67508;SDS011;54354;44.724;11.284;2023-08-12T06:53:42;4.57;;;2.87;;
67508;SDS011;54354;44.724;11.284;2023-08-12T06:56:08;5.78;;;2.78;;
67508;SDS011;54354;44.724;11.284;2023-08-12T06:58:33;5.10;;;2.67;;
67508;SDS011;54354;44.724;11.284;2023-08-12T07:00:59;4.55;;;2.90;;
67508;SDS011;54354;44.724;11.284;2023-08-12T07:03:25;6.60;;;2.50;;
67508;SDS011;54354;44.724;11.284;2023-08-12T07:05:51;3.47;;;2.50;;
67508;SDS011;54354;44.724;11.284;2023-08-12T07:08:17;4.10;;;3.20;;
67508;SDS011;54354;44.724;11.284;2023-08-12T07:10:43;3.50;;;2.33;;
67508;SDS011;54354;44.724;11.284;2023-08-12T07:13:08;4.30;;;2.05;;
67508;SDS011;54354;44.724;11.284;2023-08-12T07:15:34;4.82;;;2.42;;
67508;SDS011;54354;44.724;11.284;2023-08-12T07:18:00;2.63;;;2.42;;
67508;SDS011;54354;44.724;11.284;2023-08-12T07:20:26;7.30;;;2.50;;
67508;SDS011;54354;44.724;11.284;2023-08-12T07:22:52;3.03;;;2.60;;
67508;SDS011;54354;44.724;11.284;2023-08-12T07:25:17;5.35;;;2.33;;
67508;SDS011;54354;44.724;11.284;2023-08-12T07:27:43;4.75;;;2.03;;
67508;SDS011;54354;44.724;11.284;2023-08-12T07:30:08;3.53;;;2.28;;
67508;SDS011;54354;44.724;11.284;2023-08-12T07:32:36;4.07;;;2.30;;
67508;SDS011;54354;44.724;11.284;2023-08-12T07:35:02;2.53;;;2.08;;
67508;SDS011;54354;44.724;11.284;2023-08-12T07:37:28;3.70;;;2.13;;
67508;SDS011;54354;44.724;11.284;2023-08-12T07:39:54;2.63;;;2.20;;
67508;SDS011;54354;44.724;11.284;2023-08-12T07:42:20;6.93;;;2.05;;
67508;SDS011;54354;44.724;11.284;2023-08-12T07:44:45;5.32;;;1.92;;
67508;SDS011;54354;44.724;11.284;2023-08-12T07:47:11;2.72;;;2.10;;
67508;SDS011;54354;44.724;11.284;2023-08-12T07:49:36;5.75;;;2.10;;
67508;SDS011;54354;44.724;11.284;2023-08-12T07:52:02;3.75;;;2.03;;
67508;SDS011;54354;44.724;11.284;2023-08-12T07:54:28;3.65;;;1.90;;
67508;SDS011;54354;44.724;11.284;2023-08-12T07:56:53;2.25;;;1.67;;
67508;SDS011;54354;44.724;11.284;2023-08-12T07:59:19;3.50;;;1.90;;
67508;SDS011;54354;44.724;11.284;2023-08-12T08:01:45;3.17;;;2.25;;
67508;SDS011;54354;44.724;11.284;2023-08-12T08:04:11;2.03;;;1.92;;
67508;SDS011;54354;44.724;11.284;2023-08-12T08:06:36;2.53;;;2.00;;
67508;SDS011;54354;44.724;11.284;2023-08-12T08:09:02;5.05;;;2.15;;
67508;SDS011;54354;44.724;11.284;2023-08-12T08:11:29;2.20;;;2.00;;
67508;SDS011;54354;44.724;11.284;2023-08-12T08:13:57;2.50;;;2.10;;
67508;SDS011;54354;44.724;11.284;2023-08-12T08:16:23;2.85;;;1.85;;
67508;SDS011;54354;44.724;11.284;2023-08-12T08:18:48;2.40;;;2.20;;
67508;SDS011;54354;44.724;11.284;2023-08-12T08:21:14;4.90;;;2.03;;
67508;SDS011;54354;44.724;11.284;2023-08-12T08:23:40;2.00;;;1.90;;
67508;SDS011;54354;44.724;11.284;2023-08-12T08:26:06;2.30;;;2.10;;
67508;SDS011;54354;44.724;11.284;2023-08-12T08:28:32;2.35;;;1.80;;
67508;SDS011;54354;44.724;11.284;2023-08-12T08:31:02;1.95;;;1.83;;
67508;SDS011;54354;44.724;11.284;2023-08-12T08:33:27;4.30;;;1.88;;
67508;SDS011;54354;44.724;11.284;2023-08-12T08:35:53;2.35;;;2.13;;
67508;SDS011;54354;44.724;11.284;2023-08-12T08:38:19;2.10;;;1.90;;
67508;SDS011;54354;44.724;11.284;2023-08-12T08:40:44;1.98;;;1.85;;
67508;SDS011;54354;44.724;11.284;2023-08-12T08:43:10;2.92;;;1.80;;
67508;SDS011;54354;44.724;11.284;2023-08-12T08:45:40;1.50;;;1.40;;
67508;SDS011;54354;44.724;11.284;2023-08-12T08:48:07;3.83;;;1.58;;
67508;SDS011;54354;44.724;11.284;2023-08-12T08:50:35;5.18;;;2.95;;
67508;SDS011;54354;44.724;11.284;2023-08-12T08:53:02;6.28;;;3.15;;
67508;SDS011;54354;44.724;11.284;2023-08-12T08:55:31;5.88;;;3.75;;
67508;SDS011;54354;44.724;11.284;2023-08-12T08:57:58;5.68;;;3.70;;
67508;SDS011;54354;44.724;11.284;2023-08-12T09:00:24;4.75;;;3.22;;
67508;SDS011;54354;44.724;11.284;2023-08-12T09:02:50;5.95;;;3.55;;
67508;SDS011;54354;44.724;11.284;2023-08-12T09:05:18;4.68;;;1.73;;
67508;SDS011;54354;44.724;11.284;2023-08-12T09:07:45;4.13;;;3.42;;
67508;SDS011;54354;44.724;11.284;2023-08-12T09:10:12;2.90;;;2.60;;
67508;SDS011;54354;44.724;11.284;2023-08-12T09:12:38;5.07;;;3.35;;
67508;SDS011;54354;44.724;11.284;2023-08-12T09:15:04;3.55;;;3.25;;
67508;SDS011;54354;44.724;11.284;2023-08-12T09:17:31;2.92;;;2.67;;
67508;SDS011;54354;44.724;11.284;2023-08-12T09:19:57;2.67;;;2.45;;
67508;SDS011;54354;44.724;11.284;2023-08-12T09:22:24;3.05;;;2.78;;
67508;SDS011;54354;44.724;11.284;2023-08-12T09:24:50;2.72;;;2.47;;
67508;SDS011;54354;44.724;11.284;2023-08-12T09:27:21;3.33;;;2.67;;
67508;SDS011;54354;44.724;11.284;2023-08-12T09:29:46;4.03;;;2.80;;
67508;SDS011;54354;44.724;11.284;2023-08-12T09:32:12;3.42;;;2.70;;
67508;SDS011;54354;44.724;11.284;2023-08-12T09:34:51;3.20;;;2.42;;
67508;SDS011;54354;44.724;11.284;2023-08-12T09:37:19;4.07;;;2.47;;
67508;SDS011;54354;44.724;11.284;2023-08-12T09:39:45;2.10;;;1.92;;
67508;SDS011;54354;44.724;11.284;2023-08-12T09:42:12;5.22;;;2.45;;
67508;SDS011;54354;44.724;11.284;2023-08-12T09:44:38;3.42;;;1.98;;
67508;SDS011;54354;44.724;11.284;2023-08-12T09:47:05;2.60;;;1.40;;
67508;SDS011;54354;44.724;11.284;2023-08-12T09:49:31;8.32;;;2.30;;
67508;SDS011;54354;44.724;11.284;2023-08-12T09:51:57;5.70;;;2.17;;
67508;SDS011;54354;44.724;11.284;2023-08-12T09:54:25;6.82;;;2.50;;
67508;SDS011;54354;44.724;11.284;2023-08-12T09:56:54;4.10;;;2.10;;
67508;SDS011;54354;44.724;11.284;2023-08-12T09:59:22;7.85;;;2.30;;
67508;SDS011;54354;44.724;11.284;2023-08-12T10:01:49;6.45;;;2.10;;
67508;SDS011;54354;44.724;11.284;2023-08-12T10:04:18;3.88;;;2.22;;
67508;SDS011;54354;44.724;11.284;2023-08-12T10:06:47;4.13;;;2.15;;
67508;SDS011;54354;44.724;11.284;2023-08-12T10:09:17;5.47;;;2.10;;
67508;SDS011;54354;44.724;11.284;2023-08-12T10:11:44;5.32;;;2.28;;
67508;SDS011;54354;44.724;11.284;2023-08-12T10:14:11;8.13;;;2.60;;
67508;SDS011;54354;44.724;11.284;2023-08-12T10:16:37;4.75;;;2.28;;
67508;SDS011;54354;44.724;11.284;2023-08-12T10:19:04;5.45;;;1.92;;
67508;SDS011;54354;44.724;11.284;2023-08-12T10:21:30;4.07;;;2.25;;
67508;SDS011;54354;44.724;11.284;2023-08-12T10:23:57;2.22;;;2.03;;
67508;SDS011;54354;44.724;11.284;2023-08-12T10:26:24;4.75;;;2.30;;
67508;SDS011;54354;44.724;11.284;2023-08-12T10:28:50;4.10;;;1.75;;
67508;SDS011;54354;44.724;11.284;2023-08-12T10:31:16;2.85;;;2.10;;
67508;SDS011;54354;44.724;11.284;2023-08-12T10:33:41;2.42;;;2.08;;
67508;SDS011;54354;44.724;11.284;2023-08-12T10:36:08;2.72;;;2.20;;
67508;SDS011;54354;44.724;11.284;2023-08-12T10:38:34;2.80;;;1.88;;
67508;SDS011;54354;44.724;11.284;2023-08-12T10:43:51;2.78;;;1.98;;
67508;SDS011;54354;44.724;11.284;2023-08-12T10:46:33;2.33;;;2.00;;
67508;SDS011;54354;44.724;11.284;2023-08-12T10:49:03;2.85;;;2.00;;
67508;SDS011;54354;44.724;11.284;2023-08-12T11:02:17;1.90;;;1.80;;
67508;SDS011;54354;44.724;11.284;2023-08-12T11:04:51;4.28;;;1.75;;
67508;SDS011;54354;44.724;11.284;2023-08-12T11:07:18;4.75;;;2.08;;
67508;SDS011;54354;44.724;11.284;2023-08-12T11:09:45;2.85;;;1.80;;
67508;SDS011;54354;44.724;11.284;2023-08-12T11:12:16;2.00;;;1.73;;
67508;SDS011;54354;44.724;11.284;2023-08-12T11:14:50;3.47;;;1.70;;
67508;SDS011;54354;44.724;11.284;2023-08-12T11:17:19;2.55;;;1.75;;
67508;SDS011;54354;44.724;11.284;2023-08-12T11:19:44;5.78;;;1.80;;
67508;SDS011;54354;44.724;11.284;2023-08-12T11:22:10;2.63;;;1.90;;
67508;SDS011;54354;44.724;11.284;2023-08-12T11:24:40;2.20;;;1.90;;
67508;SDS011;54354;44.724;11.284;2023-08-12T11:27:09;4.40;;;1.60;;
67508;SDS011;54354;44.724;11.284;2023-08-12T11:29:38;3.97;;;1.70;;
67508;SDS011;54354;44.724;11.284;2023-08-12T11:32:05;2.00;;;1.60;;
67508;SDS011;54354;44.724;11.284;2023-08-12T11:34:31;2.00;;;1.80;;
67508;SDS011;54354;44.724;11.284;2023-08-12T11:36:57;3.03;;;1.50;;
67508;SDS011;54354;44.724;11.284;2023-08-12T11:39:23;2.42;;;1.80;;
67508;SDS011;54354;44.724;11.284;2023-08-12T11:41:49;4.65;;;1.50;;
67508;SDS011;54354;44.724;11.284;2023-08-12T11:44:15;5.72;;;1.60;;
67508;SDS011;54354;44.724;11.284;2023-08-12T11:46:42;1.80;;;1.60;;
67508;SDS011;54354;44.724;11.284;2023-08-12T11:49:07;2.67;;;1.70;;
67508;SDS011;54354;44.724;11.284;2023-08-12T11:51:33;3.85;;;1.60;;
67508;SDS011;54354;44.724;11.284;2023-08-12T11:54:00;1.90;;;1.70;;
67508;SDS011;54354;44.724;11.284;2023-08-12T11:56:26;4.47;;;1.95;;
67508;SDS011;54354;44.724;11.284;2023-08-12T11:58:53;3.83;;;1.75;;
67508;SDS011;54354;44.724;11.284;2023-08-12T12:01:20;2.58;;;1.75;;
67508;SDS011;54354;44.724;11.284;2023-08-12T12:03:56;3.25;;;1.63;;
67508;SDS011;54354;44.724;11.284;2023-08-12T12:06:32;3.92;;;1.70;;
67508;SDS011;54354;44.724;11.284;2023-08-12T12:09:05;4.20;;;1.60;;
67508;SDS011;54354;44.724;11.284;2023-08-12T12:11:38;6.07;;;1.70;;
67508;SDS011;54354;44.724;11.284;2023-08-12T12:14:05;3.47;;;1.75;;
67508;SDS011;54354;44.724;11.284;2023-08-12T12:19:17;3.35;;;1.73;;
67508;SDS011;54354;44.724;11.284;2023-08-12T12:21:47;1.70;;;1.58;;
67508;SDS011;54354;44.724;11.284;2023-08-12T12:24:14;4.50;;;1.55;;
67508;SDS011;54354;44.724;11.284;2023-08-12T12:26:40;3.95;;;1.38;;
67508;SDS011;54354;44.724;11.284;2023-08-12T12:29:06;2.20;;;1.60;;
67508;SDS011;54354;44.724;11.284;2023-08-12T12:31:33;2.58;;;1.40;;
67508;SDS011;54354;44.724;11.284;2023-08-12T12:34:00;2.47;;;1.60;;
67508;SDS011;54354;44.724;11.284;2023-08-12T12:36:30;2.35;;;1.70;;
67508;SDS011;54354;44.724;11.284;2023-08-12T12:38:56;2.10;;;1.60;;
67508;SDS011;54354;44.724;11.284;2023-08-12T12:41:24;1.65;;;1.50;;
67508;SDS011;54354;44.724;11.284;2023-08-12T12:43:50;18.52;;;2.75;;
67508;SDS011;54354;44.724;11.284;2023-08-12T12:46:16;22.67;;;2.70;;
67508;SDS011;54354;44.724;11.284;2023-08-12T12:48:42;11.27;;;2.20;;
67508;SDS011;54354;44.724;11.284;2023-08-12T12:51:08;2.25;;;1.30;;
67508;SDS011;54354;44.724;11.284;2023-08-12T12:53:33;2.10;;;1.40;;
67508;SDS011;54354;44.724;11.284;2023-08-12T12:55:59;6.28;;;1.30;;
67508;SDS011;54354;44.724;11.284;2023-08-12T12:58:32;5.63;;;1.70;;
67508;SDS011;54354;44.724;11.284;2023-08-12T13:00:58;2.53;;;1.90;;
67508;SDS011;54354;44.724;11.284;2023-08-12T13:03:25;5.70;;;1.73;;
67508;SDS011;54354;44.724;11.284;2023-08-12T13:05:50;1.70;;;1.60;;
67508;SDS011;54354;44.724;11.284;2023-08-12T13:08:16;8.70;;;1.80;;
67508;SDS011;54354;44.724;11.284;2023-08-12T13:10:42;56.30;;;4.93;;
67508;SDS011;54354;44.724;11.284;2023-08-12T13:13:07;17.52;;;2.15;;
67508;SDS011;54354;44.724;11.284;2023-08-12T13:15:34;4.45;;;1.48;;
67508;SDS011;54354;44.724;11.284;2023-08-12T13:18:00;2.85;;;1.10;;
67508;SDS011;54354;44.724;11.284;2023-08-12T13:20:25;12.82;;;2.25;;
67508;SDS011;54354;44.724;11.284;2023-08-12T13:22:51;17.50;;;2.20;;
67508;SDS011;54354;44.724;11.284;2023-08-12T13:25:16;26.15;;;2.80;;
67508;SDS011;54354;44.724;11.284;2023-08-12T13:27:42;9.52;;;1.90;;
67508;SDS011;54354;44.724;11.284;2023-08-12T13:30:08;8.98;;;2.05;;
67508;SDS011;54354;44.724;11.284;2023-08-12T13:32:36;7.80;;;1.65;;
67508;SDS011;54354;44.724;11.284;2023-08-12T13:35:02;3.58;;;1.80;;
67508;SDS011;54354;44.724;11.284;2023-08-12T13:37:29;9.18;;;1.63;;
67508;SDS011;54354;44.724;11.284;2023-08-12T13:39:54;5.90;;;1.70;;
67508;SDS011;54354;44.724;11.284;2023-08-12T13:42:20;1.95;;;1.50;;
67508;SDS011;54354;44.724;11.284;2023-08-12T13:44:45;5.75;;;1.92;;
67508;SDS011;54354;44.724;11.284;2023-08-12T13:47:11;4.20;;;1.80;;
67508;SDS011;54354;44.724;11.284;2023-08-12T13:49:36;2.53;;;1.52;;
67508;SDS011;54354;44.724;11.284;2023-08-12T13:52:02;4.80;;;1.80;;
67508;SDS011;54354;44.724;11.284;2023-08-12T13:54:27;4.20;;;1.75;;
67508;SDS011;54354;44.724;11.284;2023-08-12T13:56:53;2.50;;;1.58;;
67508;SDS011;54354;44.724;11.284;2023-08-12T13:59:19;3.85;;;1.60;;
67508;SDS011;54354;44.724;11.284;2023-08-12T14:01:45;3.85;;;1.63;;
67508;SDS011;54354;44.724;11.284;2023-08-12T14:04:10;2.33;;;1.67;;
67508;SDS011;54354;44.724;11.284;2023-08-12T14:06:36;2.72;;;1.60;;
67508;SDS011;54354;44.724;11.284;2023-08-12T14:09:02;2.70;;;1.60;;
67508;SDS011;54354;44.724;11.284;2023-08-12T14:11:27;3.20;;;1.52;;
67508;SDS011;54354;44.724;11.284;2023-08-12T14:13:53;1.70;;;1.60;;
67508;SDS011;54354;44.724;11.284;2023-08-12T14:16:18;2.13;;;1.70;;
67508;SDS011;54354;44.724;11.284;2023-08-12T14:18:44;1.50;;;1.40;;
67508;SDS011;54354;44.724;11.284;2023-08-12T14:21:10;1.75;;;1.50;;
67508;SDS011;54354;44.724;11.284;2023-08-12T14:23:35;1.88;;;1.60;;
67508;SDS011;54354;44.724;11.284;2023-08-12T14:26:01;3.15;;;1.70;;
67508;SDS011;54354;44.724;11.284;2023-08-12T14:28:26;1.77;;;1.50;;
67508;SDS011;54354;44.724;11.284;2023-08-12T14:30:53;2.33;;;1.55;;
67508;SDS011;54354;44.724;11.284;2023-08-12T14:33:19;2.15;;;1.50;;
67508;SDS011;54354;44.724;11.284;2023-08-12T14:35:44;2.42;;;1.40;;
67508;SDS011;54354;44.724;11.284;2023-08-12T14:38:10;4.93;;;1.50;;
67508;SDS011;54354;44.724;11.284;2023-08-12T14:40:35;1.58;;;1.40;;
67508;SDS011;54354;44.724;11.284;2023-08-12T14:43:01;1.60;;;1.50;;
67508;SDS011;54354;44.724;11.284;2023-08-12T14:45:26;2.30;;;1.70;;
67508;SDS011;54354;44.724;11.284;2023-08-12T14:47:52;2.20;;;1.50;;
67508;SDS011;54354;44.724;11.284;2023-08-12T14:50:17;4.90;;;1.70;;
67508;SDS011;54354;44.724;11.284;2023-08-12T14:52:43;21.42;;;2.90;;
67508;SDS011;54354;44.724;11.284;2023-08-12T14:55:08;57.47;;;4.68;;
67508;SDS011;54354;44.724;11.284;2023-08-12T14:57:34;36.65;;;3.33;;
67508;SDS011;54354;44.724;11.284;2023-08-12T14:59:59;20.85;;;2.60;;
67508;SDS011;54354;44.724;11.284;2023-08-12T15:02:25;23.90;;;2.63;;
67508;SDS011;54354;44.724;11.284;2023-08-12T15:04:50;13.07;;;2.05;;
67508;SDS011;54354;44.724;11.284;2023-08-12T15:07:16;10.18;;;2.28;;
67508;SDS011;54354;44.724;11.284;2023-08-12T15:09:43;12.65;;;2.10;;
67508;SDS011;54354;44.724;11.284;2023-08-12T15:12:09;18.05;;;2.45;;
67508;SDS011;54354;44.724;11.284;2023-08-12T15:14:36;7.43;;;1.83;;